ICAO code: LHPR | IATA code: QGY | AFTN: LHPRZPZX | magyar | deutsch
Weather : 2019-06-19 19:00 (UTC) | Temperature: 21.8 °C | QNH: 1012 hPa | Wind: 3.1 m/s | More
Live ATC LHPR
Live webcam

Győr-Pér Airport Meteor data

Metar:
METAR LHPR 191845Z AUTO 12007KT CAVOK 22/18 Q101


Taf:
TAF LHPR 191715Z 1918/2003 11005KT 9999 SCT040
PROB30 TEMPO 1918/1923 3000 SHRA TSRA BKN030CB
TEMPO 1923/2003 3000 BR
PROB30 TEMPO 2000/2003 1200 BCFG BR


Present weather:
Cloud development not observed or observable
Date stamp: 2019-06-19 19:00:00 UTC
Air Temp:
21.8 °C
 
Dewpoint:
18.8 °C
 
Rel. Humidity:
84%
 
QNH:
1012.0 hPa
 
Wind speed:
3.1 m/s
Max:
4.2 m/s
Wind direction:
120°
 
Precipitation (1 hour):
0.0 mm
 
Visibility:
15630 m
 
RVR:
>1500 m RWY30
 
1st cloud layer quantity:
7 octa
 
1st cloud layer base:
3670 m


Az adatokat szolgáltatja
az Országos Meteorológiai Szolgálat
Győr-Pér Airport | H 9099 Pér, Repülőtér | Tel: +36/96/559-200 | Fax: +36/96/559-202

ICAO code: LHPR | IATA code: QGY | AFTN: LHPRZPZX


weboldal tervezés: IRQ